Time;durP1;ratioP1;P1;durP2;ratioP2;P2;SDS_P1;SDS_P2;PMS_P1;PMS_P2;Temp;Humidity;BMP_temperature;BMP_pressure;BME280_temperature;BME280_humidity;BME280_pressure;Samples;Min_cycle;Max_cycle;Signal;HPM_P1;HPM_P2
2021/07/31 00:00:46;;;;;;;10.47;9.53;;;;;;;20.91;94.20;95885.09;5004167;28;20232;-63
2021/07/31 00:03:12;;;;;;;11.50;10.50;;;;;;;20.92;93.49;95889.38;4993342;28;20181;-57
2021/07/31 00:05:38;;;;;;;10.30;9.30;;;;;;;20.97;93.19;95891.91;4992333;28;20195;-58
2021/07/31 00:08:03;;;;;;;10.43;9.13;;;;;;;21.05;92.62;95893.91;4991288;28;20249;-59
2021/07/31 00:10:29;;;;;;;11.30;10.17;;;;;;;21.03;92.54;95893.41;4991877;28;20235;-63
2021/07/31 00:12:54;;;;;;;10.27;9.27;;;;;;;21.09;92.03;95892.19;4991139;28;20178;-62
2021/07/31 00:15:20;;;;;;;10.97;9.87;;;;;;;21.13;92.13;95885.16;4979806;28;20201;-57
2021/07/31 00:17:45;;;;;;;9.97;9.10;;;;;;;21.06;92.58;95892.81;4998392;28;20606;-56
2021/07/31 00:20:11;;;;;;;10.63;9.63;;;;;;;21.12;92.41;95892.41;5005501;28;20196;-63
2021/07/31 00:22:36;;;;;;;11.83;9.00;;;;;;;21.21;92.11;95897.81;4996215;28;20178;-57
2021/07/31 00:25:02;;;;;;;9.80;8.90;;;;;;;21.28;91.77;95900.84;5005531;28;20688;-63
2021/07/31 00:27:27;;;;;;;9.80;8.80;;;;;;;21.28;91.83;95904.31;4996555;28;20566;-57
2021/07/31 00:29:53;;;;;;;9.97;9.00;;;;;;;21.34;91.89;95908.41;4996635;28;20534;-63
2021/07/31 00:32:18;;;;;;;10.37;9.30;;;;;;;20.96;93.08;95906.38;4994829;28;20264;-57
2021/07/31 00:34:44;;;;;;;9.90;8.97;;;;;;;20.94;93.86;95908.56;4991129;28;20488;-62
2021/07/31 00:37:09;;;;;;;9.70;8.70;;;;;;;21.04;92.76;95903.81;4977611;28;20273;-57
2021/07/31 00:39:38;;;;;;;8.87;8.10;;;;;;;20.89;92.00;95909.44;4990395;28;20204;-63
2021/07/31 00:42:08;;;;;;;8.63;7.83;;;;;;;20.74;91.10;95915.16;4996787;28;20248;-56
2021/07/31 00:44:34;;;;;;;6.23;5.70;;;;;;;20.79;88.49;95909.69;4996311;28;20461;-57
2021/07/31 00:47:00;;;;;;;7.67;5.40;;;;;;;20.76;86.41;95902.28;4993490;28;20916;-57
2021/07/31 00:49:26;;;;;;;5.10;4.70;;;;;;;20.76;84.22;95902.28;4992194;28;20478;-57
2021/07/31 00:51:51;;;;;;;4.70;4.40;;;;;;;20.80;85.13;95905.16;4983028;28;20178;-56
2021/07/31 00:54:18;;;;;;;6.30;5.23;;;;;;;20.67;85.38;95913.97;4976852;28;20190;-62
2021/07/31 00:56:44;;;;;;;5.73;4.87;;;;;;;20.74;84.33;95911.69;4977235;28;20189;-62
2021/07/31 00:59:10;;;;;;;4.50;4.10;;;;;;;20.85;84.56;95910.38;4977083;28;20857;-62
2021/07/31 01:01:41;;;;;;;4.40;4.00;;;;;;;20.90;83.31;95908.38;4975747;28;20429;-56
2021/07/31 01:04:07;;;;;;;5.57;5.03;;;;;;;20.97;82.79;95914.09;4989330;28;20453;-63
2021/07/31 01:06:32;;;;;;;5.43;4.70;;;;;;;21.00;82.87;95902.03;4996405;28;20420;-56
2021/07/31 01:08:58;;;;;;;4.13;3.53;;;;;;;20.57;83.80;95912.31;4995196;28;20177;-57
2021/07/31 01:11:24;;;;;;;4.67;4.37;;;;;;;20.76;83.87;95917.53;4996463;28;20221;-63
2021/07/31 01:13:50;;;;;;;5.70;4.87;;;;;;;20.83;83.63;95917.91;4995860;28;20621;-57
2021/07/31 01:16:15;;;;;;;5.20;4.80;;;;;;;20.88;83.98;95915.09;4996239;28;20173;-57
2021/07/31 01:18:41;;;;;;;5.63;5.13;;;;;;;20.67;86.37;95919.31;4983197;28;20470;-56
2021/07/31 01:21:06;;;;;;;6.43;5.80;;;;;;;20.68;87.22;95915.53;4976729;28;20229;-57
2021/07/31 01:23:32;;;;;;;6.30;5.70;;;;;;;20.65;88.12;95916.16;4976205;28;20209;-57
2021/07/31 01:25:57;;;;;;;6.40;5.80;;;;;;;20.83;87.72;95912.56;4976566;28;20252;-56
2021/07/31 01:28:24;;;;;;;6.03;5.53;;;;;;;21.01;86.98;95906.28;4990278;28;20211;-57
2021/07/31 01:30:49;;;;;;;7.37;6.73;;;;;;;20.89;87.49;95911.34;4996325;28;20694;-57
2021/07/31 01:33:15;;;;;;;6.07;5.53;;;;;;;20.95;86.20;95908.25;4983893;28;20453;-63
2021/07/31 01:35:40;;;;;;;6.50;5.23;;;;;;;20.96;86.04;95909.06;4976479;28;20260;-56
2021/07/31 01:38:06;;;;;;;7.20;6.50;;;;;;;20.99;86.70;95911.94;4976409;28;20206;-63
2021/07/31 01:40:31;;;;;;;7.10;6.40;;;;;;;20.72;89.11;95911.19;4977263;28;20541;-58
2021/07/31 01:42:57;;;;;;;6.73;6.13;;;;;;;20.70;89.83;95918.72;4995526;28;20170;-63
2021/07/31 01:45:26;;;;;;;7.63;6.70;;;;;;;20.56;91.02;95902.72;4995341;28;20208;-62
2021/07/31 01:47:52;;;;;;;6.90;6.30;;;;;;;20.70;90.41;95902.69;4995615;28;20165;-62
2021/07/31 01:50:18;;;;;;;8.60;6.77;;;;;;;20.66;90.84;95886.47;4995812;28;20427;-56
2021/07/31 01:52:46;;;;;;;6.87;6.10;;;;;;;20.62;89.66;95898.84;4995232;28;20576;-57
2021/07/31 01:55:12;;;;;;;10.90;6.10;;;;;;;20.68;89.69;95899.53;4995337;28;20441;-58
2021/07/31 01:57:38;;;;;;;7.70;5.83;;;;;;;20.58;89.30;95895.22;4976594;28;20461;-57
2021/07/31 02:00:04;;;;;;;9.53;6.30;;;;;;;20.40;88.52;95902.25;4976095;28;20421;-57
2021/07/31 02:02:29;;;;;;;7.13;6.10;;;;;;;20.42;87.73;95899.25;4976149;28;20182;-57
2021/07/31 02:04:55;;;;;;;6.87;5.80;;;;;;;20.43;87.48;95901.66;4975553;28;20434;-63
2021/07/31 02:07:21;;;;;;;5.60;4.87;;;;;;;20.39;86.69;95903.34;4975884;28;20257;-57
2021/07/31 02:09:46;;;;;;;5.60;5.10;;;;;;;20.24;86.68;95897.50;4975989;28;20162;-61
2021/07/31 02:12:11;;;;;;;5.93;4.87;;;;;;;20.47;85.96;95893.84;4992522;28;20664;-56
2021/07/31 02:14:37;;;;;;;6.33;5.57;;;;;;;20.43;86.10;95898.19;4994652;28;20224;-62
2021/07/31 02:17:02;;;;;;;5.93;4.60;;;;;;;20.54;85.84;95893.44;4995051;28;20195;-56
2021/07/31 02:19:31;;;;;;;5.47;4.70;;;;;;;20.56;85.29;95889.38;4995145;28;20533;-63
2021/07/31 02:21:58;;;;;;;5.33;4.53;;;;;;;20.57;84.73;95898.16;4995031;28;20519;-62
2021/07/31 02:24:23;;;;;;;5.43;4.93;;;;;;;20.60;84.58;95898.34;4994433;28;20432;-56
2021/07/31 02:26:49;;;;;;;5.00;4.60;;;;;;;20.58;84.24;95899.75;4981002;28;20779;-57
2021/07/31 02:29:15;;;;;;;4.90;4.40;;;;;;;20.59;84.07;95902.13;5014598;28;20230;-57
2021/07/31 02:31:40;;;;;;;5.87;5.27;;;;;;;20.56;84.04;95896.59;5014426;28;20192;-56
2021/07/31 02:34:05;;;;;;;8.53;5.17;;;;;;;20.55;83.59;95901.13;5014077;28;20467;-57
2021/07/31 02:36:31;;;;;;;4.73;4.33;;;;;;;20.54;83.52;95896.88;5014350;28;20327;-62
2021/07/31 02:38:56;;;;;;;4.27;3.87;;;;;;;20.57;82.89;95904.28;5012974;28;20200;-56
2021/07/31 02:41:22;;;;;;;5.43;5.03;;;;;;;20.56;83.11;95901.94;4998393;28;20228;-57
2021/07/31 02:43:47;;;;;;;4.20;3.80;;;;;;;20.45;80.86;95896.78;4994354;28;20695;-62
2021/07/31 02:46:13;;;;;;;4.03;3.40;;;;;;;20.43;80.88;95908.88;4993966;28;20188;-56
2021/07/31 02:48:38;;;;;;;4.10;3.50;;;;;;;20.13;79.72;95896.09;4994402;28;20174;-62
2021/07/31 02:51:06;;;;;;;6.07;3.93;;;;;;;19.94;80.42;95904.22;4994623;28;20162;-56
2021/07/31 02:53:32;;;;;;;3.90;3.50;;;;;;;20.05;79.86;95905.59;4994101;28;20165;-59
2021/07/31 02:55:57;;;;;;;3.50;3.20;;;;;;;20.11;79.80;95900.97;4980780;28;20418;-56
2021/07/31 02:58:23;;;;;;;6.30;3.50;;;;;;;19.94;78.61;95898.06;4974830;28;20205;-63
2021/07/31 03:00:48;;;;;;;5.10;3.07;;;;;;;19.91;77.07;95901.34;4975150;28;20163;-63
2021/07/31 03:03:13;;;;;;;4.13;3.10;;;;;;;19.83;77.04;95902.00;4978512;28;20249;-56
2021/07/31 03:05:39;;;;;;;5.37;3.20;;;;;;;19.93;76.58;95902.63;4994344;28;20192;-57
2021/07/31 03:08:04;;;;;;;5.63;3.20;;;;;;;19.79;75.39;95899.16;4994349;28;20170;-63
2021/07/31 03:10:30;;;;;;;3.93;2.47;;;;;;;19.74;75.38;95906.44;4992973;28;20178;-56
2021/07/31 03:12:55;;;;;;;3.07;2.73;;;;;;;19.61;75.52;95901.88;4994218;28;20177;-62
2021/07/31 03:15:21;;;;;;;4.70;2.70;;;;;;;19.57;75.69;95899.00;4994116;28;20200;-62
2021/07/31 03:17:46;;;;;;;4.77;2.67;;;;;;;19.37;76.35;95897.50;4991932;28;20562;-56
2021/07/31 03:20:12;;;;;;;4.10;2.57;;;;;;;19.11;77.20;95901.59;4974641;28;20181;-56
2021/07/31 03:22:37;;;;;;;3.60;2.80;;;;;;;18.93;77.84;95901.66;4974467;28;20170;-57
2021/07/31 03:25:03;;;;;;;7.93;3.00;;;;;;;18.74;78.82;95906.97;4974594;28;20601;-56
2021/07/31 03:27:28;;;;;;;2.93;2.30;;;;;;;18.64;80.02;95907.13;4987797;28;20620;-56
2021/07/31 03:29:54;;;;;;;5.67;2.77;;;;;;;18.44;80.83;95900.19;5013721;28;20702;-62
2021/07/31 03:32:19;;;;;;;6.80;2.60;;;;;;;18.61;80.03;95896.22;5012171;28;20172;-61
2021/07/31 03:34:44;;;;;;;5.03;2.30;;;;;;;18.66;79.95;95899.63;4976620;28;20285;-62
2021/07/31 03:37:10;;;;;;;5.83;2.77;;;;;;;18.64;79.61;95893.81;4974706;28;20667;-56
2021/07/31 03:39:35;;;;;;;3.03;2.50;;;;;;;18.50;79.28;95900.13;4974558;28;20556;-56
2021/07/31 03:42:00;;;;;;;3.50;2.37;;;;;;;18.51;78.17;95899.03;4974519;28;20232;-62
2021/07/31 03:44:26;;;;;;;3.93;2.40;;;;;;;18.44;78.04;95896.75;4974078;28;20277;-56
2021/07/31 03:46:52;;;;;;;3.43;2.17;;;;;;;18.59;77.44;95901.06;4974413;28;20188;-62
2021/07/31 03:49:18;;;;;;;2.47;1.83;;;;;;;18.55;76.79;95898.19;4992442;28;20643;-62
2021/07/31 03:51:43;;;;;;;2.97;2.17;;;;;;;18.60;76.39;95906.09;4993849;28;20466;-62
2021/07/31 03:54:09;;;;;;;4.23;2.27;;;;;;;18.31;77.10;95902.72;4993295;28;20664;-57
2021/07/31 03:56:35;;;;;;;6.43;2.00;;;;;;;18.39;76.17;95897.56;4993705;28;20185;-56
2021/07/31 03:59:00;;;;;;;3.53;2.43;;;;;;;18.42;76.58;95905.00;4995638;28;20197;-56
2021/07/31 04:01:26;;;;;;;4.73;2.00;;;;;;;18.54;76.12;95901.13;4997943;28;20557;-62
2021/07/31 04:03:53;;;;;;;2.63;2.37;;;;;;;18.32;75.85;95899.78;4993558;28;20201;-56
2021/07/31 04:06:19;;;;;;;4.20;2.00;;;;;;;18.40;75.50;95896.50;4997602;28;20413;-63
2021/07/31 04:08:44;;;;;;;10.20;2.13;;;;;;;18.65;74.85;95897.25;4996337;28;20767;-63
2021/07/31 04:11:10;;;;;;;3.20;1.90;;;;;;;18.77;74.32;95902.94;4989052;28;20644;-56
2021/07/31 04:13:36;;;;;;;3.83;2.60;;;;;;;18.73;73.96;95896.59;4977567;28;20174;-57
2021/07/31 04:16:01;;;;;;;2.00;1.57;;;;;;;18.88;73.79;95899.84;4978050;28;20170;-56
2021/07/31 04:18:26;;;;;;;2.93;2.10;;;;;;;18.89;74.11;95890.78;4977841;28;20604;-56
2021/07/31 04:20:52;;;;;;;4.53;2.13;;;;;;;18.84;73.04;95903.38;4977813;28;20669;-62
2021/07/31 04:23:18;;;;;;;3.33;2.00;;;;;;;18.86;73.55;95906.53;4977503;28;20581;-57
2021/07/31 04:25:43;;;;;;;3.30;2.10;;;;;;;18.85;72.99;95910.28;4984051;28;20667;-56
2021/07/31 04:28:09;;;;;;;3.07;1.73;;;;;;;18.70;73.15;95910.50;5009307;28;20450;-62
2021/07/31 04:30:36;;;;;;;3.93;1.97;;;;;;;18.87;73.23;95911.56;5016812;28;20544;-57
2021/07/31 04:33:02;;;;;;;2.10;1.60;;;;;;;18.64;72.87;95914.31;5016266;28;20173;-63
2021/07/31 04:35:27;;;;;;;4.70;1.70;;;;;;;18.70;72.84;95921.16;5016475;28;20426;-55
2021/07/31 04:37:53;;;;;;;2.70;1.80;;;;;;;18.66;72.78;95925.47;5015021;28;20197;-57
2021/07/31 04:40:18;;;;;;;6.60;2.47;;;;;;;18.72;72.96;95926.97;5004430;28;20718;-56
2021/07/31 04:42:43;;;;;;;4.70;2.37;;;;;;;18.75;74.17;95929.84;4996604;28;20232;-62
2021/07/31 04:45:09;;;;;;;3.77;1.93;;;;;;;18.51;75.72;95937.09;4996911;28;20731;-57
2021/07/31 04:47:41;;;;;;;4.33;2.30;;;;;;;18.54;76.12;95935.72;4996802;28;20235;-62
2021/07/31 04:50:09;;;;;;;4.57;1.87;;;;;;;18.65;75.72;95934.50;4996759;28;20166;-62
2021/07/31 04:52:35;;;;;;;4.30;2.00;;;;;;;18.61;76.01;95936.94;4996592;28;20768;-60
2021/07/31 04:55:00;;;;;;;3.37;2.00;;;;;;;18.65;76.19;95940.63;4985892;28;20437;-56
2021/07/31 04:57:26;;;;;;;3.33;2.03;;;;;;;18.49;76.41;95941.91;4977371;28;20408;-63
2021/07/31 04:59:51;;;;;;;3.33;2.10;;;;;;;18.51;76.69;95938.97;4977183;28;20202;-57
2021/07/31 05:02:16;;;;;;;7.13;2.43;;;;;;;18.51;76.54;95944.28;4977312;28;20182;-62
2021/07/31 05:04:42;;;;;;;3.80;2.00;;;;;;;18.33;77.43;95940.47;4976828;28;20202;-62
2021/07/31 05:07:08;;;;;;;3.37;2.00;;;;;;;18.22;78.49;95931.84;4977042;28;20253;-63
2021/07/31 05:09:34;;;;;;;4.70;1.93;;;;;;;18.24;78.58;95939.53;4984220;28;20260;-56
2021/07/31 05:11:59;;;;;;;3.00;2.00;;;;;;;18.37;77.92;95946.81;4976936;28;20419;-56
2021/07/31 05:14:26;;;;;;;3.30;2.23;;;;;;;18.12;79.36;95955.88;4976623;28;20194;-61
2021/07/31 05:16:51;;;;;;;4.23;2.53;;;;;;;18.01;79.45;95941.09;4977014;28;20174;-56
2021/07/31 05:19:17;;;;;;;3.50;2.40;;;;;;;17.84;79.47;95943.41;4976860;28;20457;-62
2021/07/31 05:21:42;;;;;;;4.07;2.20;;;;;;;17.92;79.49;95947.31;4976683;28;20556;-62
2021/07/31 05:24:07;;;;;;;3.67;2.20;;;;;;;18.11;78.56;95946.31;4976320;28;20189;-63
2021/07/31 05:26:33;;;;;;;6.50;2.57;;;;;;;18.10;78.93;95943.94;4994912;28;20256;-62
2021/07/31 05:28:58;;;;;;;4.50;2.40;;;;;;;18.01;79.60;95943.00;4987644;28;20532;-62
2021/07/31 05:31:24;;;;;;;3.47;2.00;;;;;;;18.23;78.46;95937.94;4976678;28;20641;-56
2021/07/31 05:33:49;;;;;;;4.70;2.10;;;;;;;18.42;78.02;95947.56;4976066;28;20590;-56
2021/07/31 05:36:15;;;;;;;4.07;1.87;;;;;;;18.38;77.39;95954.53;4976383;28;20166;-57
2021/07/31 05:38:41;;;;;;;5.13;2.10;;;;;;;18.57;76.98;95951.13;4976322;28;20237;-56
2021/07/31 05:41:13;;;;;;;4.17;2.60;;;;;;;18.69;76.54;95954.97;4976483;28;20442;-62
2021/07/31 05:43:38;;;;;;;3.70;1.70;;;;;;;18.63;76.30;95955.28;4976126;28;20276;-56
2021/07/31 05:46:03;;;;;;;4.70;2.30;;;;;;;18.69;76.58;95954.16;4987734;28;20934;-63
2021/07/31 05:48:29;;;;;;;3.00;1.90;;;;;;;18.82;76.11;95956.13;4995735;28;20577;-62
2021/07/31 05:50:54;;;;;;;2.37;1.90;;;;;;;18.70;77.54;95953.88;4995634;28;20174;-57
2021/07/31 05:53:20;;;;;;;4.67;2.37;;;;;;;18.59;78.62;95949.75;4995277;28;20248;-56
2021/07/31 05:55:46;;;;;;;5.20;3.20;;;;;;;18.76;78.30;95955.41;4995622;28;20592;-62
2021/07/31 05:58:11;;;;;;;5.30;2.10;;;;;;;18.75;79.03;95953.78;4989814;28;20500;-62
2021/07/31 06:00:36;;;;;;;4.40;2.40;;;;;;;18.48;79.40;95955.50;4976236;28;20253;-62
2021/07/31 06:03:02;;;;;;;4.53;2.17;;;;;;;18.20;80.87;95952.59;4975768;28;20216;-57
2021/07/31 06:05:27;;;;;;;6.70;2.73;;;;;;;18.34;80.32;95952.69;4975942;28;20217;-57
2021/07/31 06:07:52;;;;;;;3.70;2.50;;;;;;;18.58;79.88;95950.03;4976069;28;20174;-56
2021/07/31 06:10:18;;;;;;;6.23;2.60;;;;;;;18.46;79.55;95947.81;4975908;28;20586;-56
2021/07/31 06:12:43;;;;;;;4.63;2.63;;;;;;;18.37;79.65;95952.91;4978476;28;20169;-62
2021/07/31 06:15:10;;;;;;;5.10;2.30;;;;;;;18.37;79.95;95952.91;4995392;28;20185;-56
2021/07/31 06:17:35;;;;;;;2.57;2.37;;;;;;;18.41;79.93;95946.00;4976885;28;20649;-56
2021/07/31 06:20:00;;;;;;;2.90;2.20;;;;;;;18.52;78.79;95943.19;4975753;28;20417;-56
2021/07/31 06:22:26;;;;;;;3.87;2.67;;;;;;;18.53;79.29;95947.44;4974961;28;20261;-62
2021/07/31 06:24:51;;;;;;;6.30;2.53;;;;;;;18.66;79.09;95946.75;4975215;28;20237;-62
2021/07/31 06:27:16;;;;;;;4.03;2.43;;;;;;;18.91;78.39;95952.53;4985525;28;20173;-62
2021/07/31 06:29:42;;;;;;;8.53;2.50;;;;;;;18.88;77.43;95950.44;4995085;28;20177;-57
2021/07/31 06:32:07;;;;;;;2.67;2.30;;;;;;;18.92;76.33;95950.63;4975508;28;20576;-63
2021/07/31 06:34:32;;;;;;;3.13;1.97;;;;;;;19.02;75.85;95947.84;4974847;28;20197;-62
2021/07/31 06:36:58;;;;;;;3.20;2.20;;;;;;;18.96;75.19;95952.44;4975202;28;20205;-64
2021/07/31 06:39:25;;;;;;;6.57;2.37;;;;;;;19.08;74.75;95952.81;4975371;28;20202;-64
2021/07/31 06:41:50;;;;;;;4.70;2.57;;;;;;;19.09;74.42;95957.06;4975308;28;20173;-57
2021/07/31 06:44:16;;;;;;;7.23;2.40;;;;;;;18.85;75.07;95959.00;4974780;28;20429;-57
2021/07/31 06:46:41;;;;;;;4.10;2.10;;;;;;;18.96;74.43;95963.09;4993407;28;20189;-63
2021/07/31 06:49:06;;;;;;;2.33;2.13;;;;;;;19.21;73.13;95956.59;4994590;28;20165;-64
2021/07/31 06:51:32;;;;;;;4.00;1.73;;;;;;;19.29;71.93;95955.97;4994483;28;20170;-56
2021/07/31 06:54:01;;;;;;;2.10;1.80;;;;;;;19.21;72.16;95952.06;4984340;28;20193;-56
2021/07/31 06:56:26;;;;;;;2.57;2.10;;;;;;;19.41;72.16;95951.00;4975200;28;20301;-57
2021/07/31 06:58:52;;;;;;;3.20;2.37;;;;;;;19.25;73.20;95952.28;4975064;28;20528;-57
2021/07/31 07:01:17;;;;;;;4.90;2.27;;;;;;;19.41;72.85;95946.47;4974911;28;20244;-57
2021/07/31 07:03:44;;;;;;;4.77;1.80;;;;;;;19.39;72.43;95956.63;4974530;28;20177;-63
2021/07/31 07:06:10;;;;;;;3.40;1.83;;;;;;;19.32;73.84;95944.75;4975699;28;20526;-57
2021/07/31 07:08:36;;;;;;;4.37;2.30;;;;;;;19.57;73.23;95951.56;4982797;28;20812;-63
2021/07/31 07:11:03;;;;;;;4.90;2.00;;;;;;;19.72;71.94;95946.75;4994307;28;20408;-56
2021/07/31 07:13:28;;;;;;;5.07;2.40;;;;;;;19.81;72.04;95944.19;4993926;28;20648;-56
2021/07/31 07:15:53;;;;;;;5.53;2.60;;;;;;;19.89;70.68;95944.28;4994244;28;20428;-64
2021/07/31 07:18:19;;;;;;;3.20;2.40;;;;;;;19.76;70.31;95946.94;4994202;28;20190;-63
2021/07/31 07:20:45;;;;;;;4.07;1.90;;;;;;;19.69;71.13;95946.53;4994139;28;20184;-62
2021/07/31 07:23:11;;;;;;;4.43;1.90;;;;;;;19.51;71.71;95953.50;4986923;28;20194;-63
2021/07/31 07:25:37;;;;;;;3.43;2.33;;;;;;;19.61;72.07;95948.00;4974685;28;20449;-55
2021/07/31 07:28:02;;;;;;;6.33;2.33;;;;;;;19.74;72.64;95941.91;4997036;28;20215;-55
2021/07/31 07:30:28;;;;;;;3.80;2.27;;;;;;;20.01;73.10;95943.81;5013761;28;20524;-56
2021/07/31 07:32:54;;;;;;;3.93;2.67;;;;;;;19.85;72.74;95935.31;4996981;28;20188;-56
2021/07/31 07:35:21;;;;;;;3.37;1.97;;;;;;;19.93;71.54;95931.94;4998060;28;20188;-56
2021/07/31 07:37:46;;;;;;;5.07;2.27;;;;;;;19.88;70.48;95936.59;4993805;28;20441;-56
2021/07/31 07:40:12;;;;;;;6.63;1.90;;;;;;;20.00;69.80;95936.91;5007782;28;20415;-61
2021/07/31 07:42:38;;;;;;;3.80;1.87;;;;;;;19.92;67.95;95941.06;5004543;28;20538;-58
2021/07/31 07:45:05;;;;;;;6.07;1.90;;;;;;;19.98;67.45;95941.75;5008129;28;20218;-56
2021/07/31 07:47:30;;;;;;;4.43;1.90;;;;;;;19.91;67.84;95934.13;5013778;28;20438;-63
2021/07/31 07:49:56;;;;;;;4.27;1.73;;;;;;;20.04;67.20;95943.22;4998642;28;20416;-57
2021/07/31 07:52:21;;;;;;;4.37;2.00;;;;;;;19.98;66.51;95945.22;4997117;28;20256;-57
2021/07/31 07:54:46;;;;;;;5.63;2.07;;;;;;;20.11;66.73;95948.97;4996906;28;20192;-57
2021/07/31 07:57:12;;;;;;;2.77;1.90;;;;;;;20.14;68.00;95949.19;4997092;28;20256;-62
2021/07/31 07:59:37;;;;;;;10.63;2.50;;;;;;;20.24;66.68;95950.88;4997034;28;20189;-63
2021/07/31 08:02:03;;;;;;;4.33;2.00;;;;;;;19.97;65.06;95953.50;4996678;28;20552;-57
2021/07/31 08:04:33;;;;;;;5.30;1.70;;;;;;;20.11;63.59;95948.97;4996904;28;20194;-57
2021/07/31 08:06:58;;;;;;;3.90;1.80;;;;;;;20.25;63.77;95947.13;4997890;28;20220;-63
2021/07/31 08:09:23;;;;;;;3.03;1.50;;;;;;;19.75;64.84;95948.03;4997521;28;20867;-57
2021/07/31 08:11:49;;;;;;;3.70;1.90;;;;;;;19.91;65.38;95952.03;4996257;28;20180;-57
2021/07/31 08:14:14;;;;;;;3.30;1.60;;;;;;;20.02;64.34;95948.84;4996990;28;20585;-63
2021/07/31 08:16:40;;;;;;;2.33;1.77;;;;;;;20.25;65.60;95947.94;4995093;28;20605;-57
2021/07/31 08:19:06;;;;;;;3.13;1.63;;;;;;;20.47;65.36;95941.91;5003492;28;20227;-63
2021/07/31 08:21:32;;;;;;;4.10;1.97;;;;;;;20.14;64.57;95938.50;4988718;28;20169;-62
2021/07/31 08:23:58;;;;;;;4.63;1.77;;;;;;;20.28;64.57;95947.34;4988183;28;20463;-56
2021/07/31 08:26:23;;;;;;;2.93;2.10;;;;;;;20.52;64.04;95949.78;4986163;28;20224;-57
2021/07/31 08:28:50;;;;;;;6.40;2.20;;;;;;;20.45;65.60;95941.41;4992174;28;20174;-63
2021/07/31 08:31:16;;;;;;;4.47;1.83;;;;;;;20.60;64.19;95941.06;4985522;28;20633;-63
2021/07/31 08:33:42;;;;;;;3.50;2.10;;;;;;;20.66;65.33;95941.75;4987745;28;20427;-63
2021/07/31 08:36:08;;;;;;;5.77;2.07;;;;;;;20.96;64.90;95936.53;4981462;28;20181;-58
2021/07/31 08:38:33;;;;;;;3.43;2.07;;;;;;;20.68;64.49;95943.03;4988217;28;20208;-62
2021/07/31 08:41:01;;;;;;;1.70;1.60;;;;;;;20.72;64.53;95948.56;4988388;28;20416;-63
2021/07/31 08:43:28;;;;;;;2.03;1.87;;;;;;;20.70;65.94;95940.06;4985234;28;20608;-63
2021/07/31 08:45:53;;;;;;;3.90;2.00;;;;;;;20.64;63.13;95942.06;4987974;28;20445;-57
2021/07/31 08:48:27;;;;;;;2.13;1.93;;;;;;;20.31;63.77;95954.75;4985209;28;20817;-57
2021/07/31 08:50:57;;;;;;;6.53;1.80;;;;;;;20.64;64.02;95947.41;4986784;28;20177;-57
2021/07/31 08:53:28;;;;;;;4.50;2.20;;;;;;;20.61;64.92;95952.53;4987285;28;20425;-57
2021/07/31 08:55:55;;;;;;;3.83;1.73;;;;;;;20.71;63.68;95942.44;4984883;28;20445;-63
2021/07/31 08:58:23;;;;;;;4.23;1.90;;;;;;;21.09;63.49;95943.75;4976957;28;20967;-63
2021/07/31 09:00:48;;;;;;;5.13;1.97;;;;;;;21.30;62.74;95946.78;4972539;28;20504;-62
2021/07/31 09:03:15;;;;;;;3.47;1.93;;;;;;;21.17;62.21;95943.06;4975785;28;20436;-59
2021/07/31 09:05:42;;;;;;;3.93;1.90;;;;;;;21.18;62.48;95935.81;4973563;28;20190;-57
2021/07/31 09:08:08;;;;;;;3.63;2.00;;;;;;;21.31;62.43;95933.09;4973574;28;20452;-62
2021/07/31 09:10:35;;;;;;;3.10;1.80;;;;;;;21.73;61.04;95931.00;4973026;28;20441;-57
2021/07/31 09:13:03;;;;;;;3.23;1.93;;;;;;;21.56;61.32;95934.34;4981939;28;20424;-58
2021/07/31 09:15:46;;;;;;;3.93;2.40;;;;;;;21.78;61.18;95925.50;4988342;28;20448;-64
2021/07/31 09:18:34;;;;;;;5.67;1.83;;;;;;;22.06;61.35;95925.06;4980624;28;20453;-62
2021/07/31 09:21:12;;;;;;;2.80;1.97;;;;;;;22.18;56.63;95929.81;4981354;28;20472;-58
2021/07/31 09:23:44;;;;;;;5.47;2.20;;;;;;;22.16;57.53;95932.81;4995293;28;20494;-63
2021/07/31 09:26:14;;;;;;;2.60;1.70;;;;;;;21.92;57.52;95929.72;4996213;28;20405;-58
2021/07/31 09:28:41;;;;;;;5.83;2.23;;;;;;;22.07;57.07;95912.44;4995420;28;20455;-64
2021/07/31 09:31:13;;;;;;;2.40;1.93;;;;;;;22.41;58.51;95915.28;4976667;28;20461;-57
2021/07/31 09:33:47;;;;;;;4.83;2.00;;;;;;;22.36;59.39;95918.88;4982037;28;20759;-58
2021/07/31 09:36:13;;;;;;;3.93;2.00;;;;;;;22.53;59.10;95918.13;4976532;28;20807;-63
2021/07/31 09:38:43;;;;;;;2.93;1.50;;;;;;;22.23;59.57;95921.69;4993067;28;20463;-58
2021/07/31 09:41:29;;;;;;;1.53;1.23;;;;;;;21.94;55.35;95911.47;4995914;28;20177;-64
2021/07/31 09:44:01;;;;;;;2.80;2.00;;;;;;;22.25;55.49;95911.41;4995254;28;20432;-65
2021/07/31 09:46:32;;;;;;;2.40;1.57;;;;;;;22.30;56.13;95920.09;5007925;28;20514;-58
2021/07/31 09:48:58;;;;;;;3.40;1.60;;;;;;;22.26;56.22;95913.81;5015129;28;20932;-64
2021/07/31 09:51:40;;;;;;;2.47;1.50;;;;;;;22.18;54.47;95906.53;5012068;28;20430;-63
2021/07/31 09:54:10;;;;;;;4.60;1.50;;;;;;;22.36;56.88;95916.19;4995111;28;20428;-58
2021/07/31 09:56:43;;;;;;;5.27;1.53;;;;;;;22.63;55.50;95911.72;4995583;28;20975;-58
2021/07/31 09:59:10;;;;;;;4.17;1.53;;;;;;;22.59;52.49;95908.09;4994472;28;20821;-57
2021/07/31 10:01:40;;;;;;;1.73;1.40;;;;;;;22.91;53.58;95910.31;4976287;28;20797;-64
2021/07/31 10:04:06;;;;;;;4.20;2.13;;;;;;;22.95;54.11;95904.03;4975615;28;20913;-65
2021/07/31 10:06:32;;;;;;;2.80;1.33;;;;;;;23.19;57.28;95898.97;4975831;28;20410;-65
2021/07/31 10:08:59;;;;;;;1.73;1.47;;;;;;;23.24;55.91;95904.19;4975976;28;20208;-67
2021/07/31 10:11:26;;;;;;;12.40;2.00;;;;;;;23.29;58.38;95900.56;4976154;28;20175;-59
2021/07/31 10:13:53;;;;;;;5.43;1.77;;;;;;;23.37;55.16;95894.44;4975289;28;20433;-66
2021/07/31 10:16:19;;;;;;;2.70;1.60;;;;;;;23.71;56.74;95888.97;4989476;28;20463;-66
2021/07/31 10:19:08;;;;;;;2.00;1.53;;;;;;;23.69;52.20;95888.50;4994988;28;20492;-59
2021/07/31 10:21:45;;;;;;;2.90;1.50;;;;;;;23.82;53.87;95881.38;4988689;28;20192;-61
2021/07/31 10:24:11;;;;;;;1.97;1.40;;;;;;;24.02;55.75;95884.19;4980852;28;20876;-60
2021/07/31 10:26:38;;;;;;;3.27;1.77;;;;;;;24.08;53.18;95888.25;4974264;28;20445;-61
2021/07/31 10:29:25;;;;;;;3.50;1.40;;;;;;;23.92;50.50;95886.38;4975676;28;20162;-60
2021/07/31 10:31:51;;;;;;;1.50;1.40;;;;;;;23.79;49.96;95895.44;4975403;28;20393;-61
2021/07/31 10:34:56;;;;;;;1.47;1.37;;;;;;;23.92;50.16;95899.78;4974857;28;20986;-65
2021/07/31 10:37:45;;;;;;;1.80;1.43;;;;;;;24.07;50.51;95896.63;4978847;28;20169;-65
2021/07/31 10:40:41;;;;;;;3.57;1.47;;;;;;;24.16;48.41;95894.69;4981527;28;20511;-60
2021/07/31 10:43:09;;;;;;;1.70;1.40;;;;;;;23.94;49.63;95893.00;4994449;28;20413;-66
2021/07/31 10:45:35;;;;;;;5.80;1.70;;;;;;;24.13;56.87;95888.06;4991419;28;20460;-68
2021/07/31 10:48:02;;;;;;;1.70;1.53;;;;;;;24.39;50.87;95883.34;4974014;28;20774;-66
2021/07/31 10:50:29;;;;;;;3.10;1.67;;;;;;;24.38;54.31;95895.22;4975061;28;20182;-62
2021/07/31 10:53:01;;;;;;;2.00;1.20;;;;;;;23.98;51.51;95893.94;4974832;28;20410;-62
2021/07/31 10:55:36;;;;;;;4.00;1.80;;;;;;;24.12;50.10;95896.44;4974921;28;20433;-65
2021/07/31 10:58:01;;;;;;;2.07;1.50;;;;;;;24.28;51.58;95900.16;4974947;28;20420;-66
2021/07/31 11:00:34;;;;;;;4.57;2.00;;;;;;;24.32;49.24;95893.81;4978037;28;20425;-65
2021/07/31 11:03:05;;;;;;;2.20;1.40;;;;;;;24.41;49.87;95891.06;4994263;28;20165;-67
2021/07/31 11:05:49;;;;;;;13.53;5.60;;;;;;;24.49;52.50;95895.63;4994182;28;20424;-66
2021/07/31 11:08:18;;;;;;;3.60;1.80;;;;;;;24.56;49.92;95895.09;4994079;28;20766;-59
2021/07/31 11:10:51;;;;;;;3.10;1.60;;;;;;;24.54;49.62;95894.63;4994354;28;20440;-59
2021/07/31 11:13:16;;;;;;;4.43;1.50;;;;;;;24.33;45.69;95903.44;4993799;28;20409;-59
2021/07/31 11:16:00;;;;;;;13.10;5.87;;;;;;;24.48;53.31;95890.59;4986446;28;20468;-66
2021/07/31 11:18:32;;;;;;;1.70;1.60;;;;;;;24.32;47.99;95896.50;4974511;28;20284;-58
2021/07/31 11:21:10;;;;;;;2.43;1.50;;;;;;;23.91;47.77;95896.34;4974784;28;20417;-59
2021/07/31 11:23:43;;;;;;;3.13;1.93;;;;;;;24.21;49.79;95894.50;4999202;28;20986;-67
2021/07/31 11:26:09;;;;;;;2.27;1.60;;;;;;;24.51;54.80;95896.09;4974662;28;20858;-61
2021/07/31 11:28:38;;;;;;;1.90;1.20;;;;;;;24.67;51.11;95897.09;4980268;28;20471;-67
2021/07/31 11:31:18;;;;;;;2.60;1.60;;;;;;;24.84;53.33;95897.00;4987645;28;20430;-67
2021/07/31 11:33:58;;;;;;;1.87;1.60;;;;;;;25.04;49.61;95890.84;4974068;28;20896;-59